Clayton, New Mexico
Current Conditions -  °F | °C
As of 4:55 AM on Friday 24 Oct 2014 (Local Time) from KCAO Reporting Station
Clear Clear  
Wind Chill: 56°   Ceiling: Unl
Heat Index: 56°   Visibility: 10mi
Dew Point: 43°   Wind: 12mph
Humidity: 62%   Direction: 260°W
Pressure: 30.16"   Gusts: NA
Location:  36.45°N, 103.18°W
Report Text: KCAO 241055Z AUTO 26010KT 10SM CLR 13/06 A3016 RMK AO2 SLP162 T01330061
Loading
Personal Weather Stations






























Interactive Weather Map
Tropical Storm Tracking
New forecast layout! Learn more

10-Day Weather Forecast

Advertisements
Track Severe Weather on mobile